sensor_id;sensor_type;location;lat;lon;timestamp;P1;durP1;ratioP1;P2;durP2;ratioP2
56343;SDS011;42245;42.058;24.700;2023-03-20T04:55:09;12.30;;;4.93;;
56343;SDS011;42245;42.058;24.700;2023-03-20T04:57:34;10.13;;;4.13;;
56343;SDS011;42245;42.058;24.700;2023-03-20T04:59:59;8.43;;;4.63;;
56343;SDS011;42245;42.058;24.700;2023-03-20T05:02:25;8.03;;;4.00;;
56343;SDS011;42245;42.058;24.700;2023-03-20T05:04:51;5.40;;;3.70;;
56343;SDS011;42245;42.058;24.700;2023-03-20T05:07:16;6.17;;;3.73;;
56343;SDS011;42245;42.058;24.700;2023-03-20T05:09:42;7.93;;;4.23;;
56343;SDS011;42245;42.058;24.700;2023-03-20T05:12:07;6.33;;;3.97;;
56343;SDS011;42245;42.058;24.700;2023-03-20T05:14:33;5.87;;;3.70;;
56343;SDS011;42245;42.058;24.700;2023-03-20T05:16:58;7.63;;;4.27;;
56343;SDS011;42245;42.058;24.700;2023-03-20T05:19:24;6.40;;;4.10;;
56343;SDS011;42245;42.058;24.700;2023-03-20T05:21:49;9.83;;;5.67;;
56343;SDS011;42245;42.058;24.700;2023-03-20T05:24:15;9.70;;;5.10;;
56343;SDS011;42245;42.058;24.700;2023-03-20T05:26:40;30.47;;;6.80;;
56343;SDS011;42245;42.058;24.700;2023-03-20T05:29:06;12.10;;;5.20;;
56343;SDS011;42245;42.058;24.700;2023-03-20T05:31:31;9.90;;;5.30;;
56343;SDS011;42245;42.058;24.700;2023-03-20T05:33:57;9.73;;;5.90;;
56343;SDS011;42245;42.058;24.700;2023-03-20T05:36:22;8.37;;;5.17;;
56343;SDS011;42245;42.058;24.700;2023-03-20T05:38:47;6.40;;;4.30;;
56343;SDS011;42245;42.058;24.700;2023-03-20T05:41:13;10.23;;;5.13;;
56343;SDS011;42245;42.058;24.700;2023-03-20T05:43:38;5.93;;;3.90;;
56343;SDS011;42245;42.058;24.700;2023-03-20T05:46:03;14.83;;;5.10;;
56343;SDS011;42245;42.058;24.700;2023-03-20T05:48:29;30.23;;;5.77;;
56343;SDS011;42245;42.058;24.700;2023-03-20T05:50:54;10.40;;;5.00;;
56343;SDS011;42245;42.058;24.700;2023-03-20T05:53:20;8.90;;;4.53;;
56343;SDS011;42245;42.058;24.700;2023-03-20T05:55:45;19.98;;;10.73;;
56343;SDS011;42245;42.058;24.700;2023-03-20T05:58:11;9.18;;;6.15;;
56343;SDS011;42245;42.058;24.700;2023-03-20T06:00:36;8.07;;;5.25;;
56343;SDS011;42245;42.058;24.700;2023-03-20T06:03:03;6.97;;;5.03;;
56343;SDS011;42245;42.058;24.700;2023-03-20T06:05:30;12.63;;;6.78;;
56343;SDS011;42245;42.058;24.700;2023-03-20T06:07:56;10.27;;;5.80;;
56343;SDS011;42245;42.058;24.700;2023-03-20T06:10:21;11.43;;;6.03;;
56343;SDS011;42245;42.058;24.700;2023-03-20T06:12:47;11.10;;;6.57;;
56343;SDS011;42245;42.058;24.700;2023-03-20T06:15:12;10.25;;;6.18;;
56343;SDS011;42245;42.058;24.700;2023-03-20T06:17:37;8.23;;;6.00;;
56343;SDS011;42245;42.058;24.700;2023-03-20T06:20:03;11.35;;;6.82;;
56343;SDS011;42245;42.058;24.700;2023-03-20T06:22:29;11.98;;;7.07;;
56343;SDS011;42245;42.058;24.700;2023-03-20T06:24:55;11.65;;;6.47;;
56343;SDS011;42245;42.058;24.700;2023-03-20T06:27:21;8.73;;;6.03;;
56343;SDS011;42245;42.058;24.700;2023-03-20T06:29:46;22.63;;;7.13;;
56343;SDS011;42245;42.058;24.700;2023-03-20T06:32:12;8.75;;;6.00;;
56343;SDS011;42245;42.058;24.700;2023-03-20T06:34:38;9.93;;;6.28;;
56343;SDS011;42245;42.058;24.700;2023-03-20T06:37:04;9.18;;;6.43;;
56343;SDS011;42245;42.058;24.700;2023-03-20T06:39:30;10.48;;;6.07;;
56343;SDS011;42245;42.058;24.700;2023-03-20T06:41:55;28.67;;;7.07;;
56343;SDS011;42245;42.058;24.700;2023-03-20T06:44:20;25.73;;;6.85;;
56343;SDS011;42245;42.058;24.700;2023-03-20T06:46:46;10.88;;;7.28;;
56343;SDS011;42245;42.058;24.700;2023-03-20T06:49:11;9.70;;;7.10;;
56343;SDS011;42245;42.058;24.700;2023-03-20T06:51:37;31.98;;;7.60;;
56343;SDS011;42245;42.058;24.700;2023-03-20T06:54:03;12.65;;;7.38;;
56343;SDS011;42245;42.058;24.700;2023-03-20T06:56:29;25.13;;;8.07;;
56343;SDS011;42245;42.058;24.700;2023-03-20T06:58:55;22.23;;;11.95;;
56343;SDS011;42245;42.058;24.700;2023-03-20T07:01:21;12.82;;;7.50;;
56343;SDS011;42245;42.058;24.700;2023-03-20T07:03:46;11.68;;;6.32;;
56343;SDS011;42245;42.058;24.700;2023-03-20T07:06:11;9.52;;;6.18;;
56343;SDS011;42245;42.058;24.700;2023-03-20T07:08:37;8.25;;;5.90;;
56343;SDS011;42245;42.058;24.700;2023-03-20T07:11:03;9.32;;;5.90;;
56343;SDS011;42245;42.058;24.700;2023-03-20T07:13:29;7.70;;;5.30;;
56343;SDS011;42245;42.058;24.700;2023-03-20T07:15:55;10.27;;;6.05;;
56343;SDS011;42245;42.058;24.700;2023-03-20T07:18:22;8.70;;;5.80;;
56343;SDS011;42245;42.058;24.700;2023-03-20T07:20:52;7.13;;;5.53;;
56343;SDS011;42245;42.058;24.700;2023-03-20T07:23:19;8.63;;;6.07;;
56343;SDS011;42245;42.058;24.700;2023-03-20T07:25:44;9.25;;;6.22;;
56343;SDS011;42245;42.058;24.700;2023-03-20T07:28:11;9.68;;;6.00;;
56343;SDS011;42245;42.058;24.700;2023-03-20T07:30:36;9.13;;;5.97;;
56343;SDS011;42245;42.058;24.700;2023-03-20T07:33:02;9.20;;;6.50;;
56343;SDS011;42245;42.058;24.700;2023-03-20T07:35:27;8.90;;;6.75;;
56343;SDS011;42245;42.058;24.700;2023-03-20T07:37:53;9.63;;;6.13;;
56343;SDS011;42245;42.058;24.700;2023-03-20T07:40:18;11.57;;;6.50;;
56343;SDS011;42245;42.058;24.700;2023-03-20T07:42:43;9.48;;;6.32;;
56343;SDS011;42245;42.058;24.700;2023-03-20T07:45:09;14.70;;;6.70;;
56343;SDS011;42245;42.058;24.700;2023-03-20T07:47:35;11.27;;;7.22;;
56343;SDS011;42245;42.058;24.700;2023-03-20T07:50:00;11.93;;;7.55;;
56343;SDS011;42245;42.058;24.700;2023-03-20T07:52:26;14.23;;;7.40;;
56343;SDS011;42245;42.058;24.700;2023-03-20T07:54:51;12.15;;;7.25;;
56343;SDS011;42245;42.058;24.700;2023-03-20T07:57:16;11.85;;;7.53;;
56343;SDS011;42245;42.058;24.700;2023-03-20T07:59:42;15.57;;;7.07;;
56343;SDS011;42245;42.058;24.700;2023-03-20T08:02:10;13.30;;;7.82;;
56343;SDS011;42245;42.058;24.700;2023-03-20T08:04:38;15.18;;;7.72;;
56343;SDS011;42245;42.058;24.700;2023-03-20T08:07:04;12.00;;;7.75;;
56343;SDS011;42245;42.058;24.700;2023-03-20T08:09:29;11.40;;;7.60;;
56343;SDS011;42245;42.058;24.700;2023-03-20T08:11:55;12.63;;;7.65;;
56343;SDS011;42245;42.058;24.700;2023-03-20T08:14:20;16.73;;;9.80;;
56343;SDS011;42245;42.058;24.700;2023-03-20T08:16:45;15.52;;;8.63;;
56343;SDS011;42245;42.058;24.700;2023-03-20T08:19:11;17.25;;;8.73;;
56343;SDS011;42245;42.058;24.700;2023-03-20T08:21:37;11.20;;;8.23;;
56343;SDS011;42245;42.058;24.700;2023-03-20T08:24:02;14.93;;;8.60;;
56343;SDS011;42245;42.058;24.700;2023-03-20T08:26:28;21.95;;;9.32;;
56343;SDS011;42245;42.058;24.700;2023-03-20T08:28:54;14.52;;;8.68;;
56343;SDS011;42245;42.058;24.700;2023-03-20T08:31:19;17.30;;;8.65;;
56343;SDS011;42245;42.058;24.700;2023-03-20T08:33:45;17.05;;;8.52;;
56343;SDS011;42245;42.058;24.700;2023-03-20T08:36:11;12.65;;;8.85;;
56343;SDS011;42245;42.058;24.700;2023-03-20T08:38:37;16.27;;;9.10;;
56343;SDS011;42245;42.058;24.700;2023-03-20T08:41:03;14.38;;;8.10;;
56343;SDS011;42245;42.058;24.700;2023-03-20T08:43:30;12.85;;;8.32;;
56343;SDS011;42245;42.058;24.700;2023-03-20T08:45:55;14.60;;;8.07;;
56343;SDS011;42245;42.058;24.700;2023-03-20T08:48:21;13.40;;;8.25;;
56343;SDS011;42245;42.058;24.700;2023-03-20T08:50:46;13.10;;;8.55;;
56343;SDS011;42245;42.058;24.700;2023-03-20T08:53:12;17.05;;;8.88;;
56343;SDS011;42245;42.058;24.700;2023-03-20T08:55:37;14.02;;;9.15;;
56343;SDS011;42245;42.058;24.700;2023-03-20T08:58:03;15.18;;;9.25;;
56343;SDS011;42245;42.058;24.700;2023-03-20T09:00:28;15.73;;;8.95;;
56343;SDS011;42245;42.058;24.700;2023-03-20T09:02:53;16.67;;;9.38;;
56343;SDS011;42245;42.058;24.700;2023-03-20T09:05:19;16.65;;;9.60;;
56343;SDS011;42245;42.058;24.700;2023-03-20T09:07:44;19.00;;;10.43;;
56343;SDS011;42245;42.058;24.700;2023-03-20T09:10:10;23.00;;;11.13;;
56343;SDS011;42245;42.058;24.700;2023-03-20T09:12:36;17.73;;;11.88;;
56343;SDS011;42245;42.058;24.700;2023-03-20T09:15:02;16.23;;;9.32;;
56343;SDS011;42245;42.058;24.700;2023-03-20T09:17:28;13.25;;;8.90;;
56343;SDS011;42245;42.058;24.700;2023-03-20T09:19:55;16.77;;;8.98;;
56343;SDS011;42245;42.058;24.700;2023-03-20T09:22:21;11.63;;;8.50;;
56343;SDS011;42245;42.058;24.700;2023-03-20T09:24:46;15.27;;;9.13;;
56343;SDS011;42245;42.058;24.700;2023-03-20T09:27:12;11.98;;;8.98;;
56343;SDS011;42245;42.058;24.700;2023-03-20T09:29:38;17.52;;;9.38;;
56343;SDS011;42245;42.058;24.700;2023-03-20T09:32:07;16.33;;;9.80;;
56343;SDS011;42245;42.058;24.700;2023-03-20T09:34:35;16.20;;;9.70;;
56343;SDS011;42245;42.058;24.700;2023-03-20T09:37:01;18.08;;;9.75;;
56343;SDS011;42245;42.058;24.700;2023-03-20T09:39:27;15.55;;;9.75;;
56343;SDS011;42245;42.058;24.700;2023-03-20T09:41:52;16.95;;;10.68;;
56343;SDS011;42245;42.058;24.700;2023-03-20T09:54:56;16.00;;;10.93;;
56343;SDS011;42245;42.058;24.700;2023-03-20T09:57:26;15.75;;;11.10;;
56343;SDS011;42245;42.058;24.700;2023-03-20T09:59:57;15.63;;;11.18;;
56343;SDS011;42245;42.058;24.700;2023-03-20T10:05:24;15.57;;;10.63;;
56343;SDS011;42245;42.058;24.700;2023-03-20T10:07:55;18.00;;;10.55;;
56343;SDS011;42245;42.058;24.700;2023-03-20T10:10:27;17.85;;;10.15;;
56343;SDS011;42245;42.058;24.700;2023-03-20T10:13:05;17.00;;;10.57;;
56343;SDS011;42245;42.058;24.700;2023-03-20T10:23:34;20.33;;;9.88;;
56343;SDS011;42245;42.058;24.700;2023-03-20T10:26:11;29.58;;;11.93;;
56343;SDS011;42245;42.058;24.700;2023-03-20T10:31:17;17.27;;;10.27;;
56343;SDS011;42245;42.058;24.700;2023-03-20T10:41:45;22.00;;;10.95;;
56343;SDS011;42245;42.058;24.700;2023-03-20T10:44:18;26.63;;;11.65;;
56343;SDS011;42245;42.058;24.700;2023-03-20T10:46:52;18.50;;;10.35;;
56343;SDS011;42245;42.058;24.700;2023-03-20T10:51:58;14.80;;;9.13;;
56343;SDS011;42245;42.058;24.700;2023-03-20T10:56:54;14.95;;;8.95;;
56343;SDS011;42245;42.058;24.700;2023-03-20T10:59:55;14.10;;;8.50;;
56343;SDS011;42245;42.058;24.700;2023-03-20T11:02:17;22.02;;;9.32;;
56343;SDS011;42245;42.058;24.700;2023-03-20T11:04:45;15.60;;;9.10;;
56343;SDS011;42245;42.058;24.700;2023-03-20T11:09:39;20.75;;;9.13;;
56343;SDS011;42245;42.058;24.700;2023-03-20T11:12:04;17.98;;;8.65;;
56343;SDS011;42245;42.058;24.700;2023-03-20T11:14:34;15.48;;;8.15;;
56343;SDS011;42245;42.058;24.700;2023-03-20T11:17:02;20.17;;;9.18;;
56343;SDS011;42245;42.058;24.700;2023-03-20T11:19:31;21.45;;;8.20;;
56343;SDS011;42245;42.058;24.700;2023-03-20T11:21:59;20.23;;;8.93;;
56343;SDS011;42245;42.058;24.700;2023-03-20T11:24:33;16.17;;;8.43;;
56343;SDS011;42245;42.058;24.700;2023-03-20T11:27:05;18.92;;;8.45;;
56343;SDS011;42245;42.058;24.700;2023-03-20T11:29:31;16.85;;;8.57;;
56343;SDS011;42245;42.058;24.700;2023-03-20T11:34:31;20.25;;;8.98;;
56343;SDS011;42245;42.058;24.700;2023-03-20T11:37:01;22.42;;;8.10;;
56343;SDS011;42245;42.058;24.700;2023-03-20T11:39:31;13.30;;;8.15;;
56343;SDS011;42245;42.058;24.700;2023-03-20T11:41:58;13.90;;;8.43;;
56343;SDS011;42245;42.058;24.700;2023-03-20T11:44:27;17.95;;;8.73;;
56343;SDS011;42245;42.058;24.700;2023-03-20T11:47:05;13.15;;;8.73;;
56343;SDS011;42245;42.058;24.700;2023-03-20T11:49:46;12.88;;;8.15;;
56343;SDS011;42245;42.058;24.700;2023-03-20T11:52:16;21.02;;;8.52;;
56343;SDS011;42245;42.058;24.700;2023-03-20T11:54:46;16.02;;;8.40;;
56343;SDS011;42245;42.058;24.700;2023-03-20T12:02:35;21.73;;;8.65;;
56343;SDS011;42245;42.058;24.700;2023-03-20T12:05:02;16.67;;;8.07;;
56343;SDS011;42245;42.058;24.700;2023-03-20T12:07:43;15.73;;;8.00;;
56343;SDS011;42245;42.058;24.700;2023-03-20T12:10:10;9.88;;;7.50;;
56343;SDS011;42245;42.058;24.700;2023-03-20T12:18:05;10.05;;;7.55;;
56343;SDS011;42245;42.058;24.700;2023-03-20T12:20:57;12.25;;;7.72;;
56343;SDS011;42245;42.058;24.700;2023-03-20T12:23:34;11.70;;;7.40;;
56343;SDS011;42245;42.058;24.700;2023-03-20T12:26:13;11.30;;;7.63;;
56343;SDS011;42245;42.058;24.700;2023-03-20T12:34:12;12.93;;;7.50;;
56343;SDS011;42245;42.058;24.700;2023-03-20T12:36:42;10.80;;;7.05;;
56343;SDS011;42245;42.058;24.700;2023-03-20T12:39:16;12.13;;;6.90;;
56343;SDS011;42245;42.058;24.700;2023-03-20T12:53:20;11.68;;;6.15;;
56343;SDS011;42245;42.058;24.700;2023-03-20T13:06:49;11.65;;;6.47;;
56343;SDS011;42245;42.058;24.700;2023-03-20T13:22:36;6.60;;;4.90;;
56343;SDS011;42245;42.058;24.700;2023-03-20T13:30:42;17.50;;;5.65;;
56343;SDS011;42245;42.058;24.700;2023-03-20T13:38:32;10.48;;;4.90;;
56343;SDS011;42245;42.058;24.700;2023-03-20T13:41:01;8.32;;;5.10;;
56343;SDS011;42245;42.058;24.700;2023-03-20T13:46:21;8.95;;;5.28;;
56343;SDS011;42245;42.058;24.700;2023-03-20T13:48:49;7.45;;;4.50;;
56343;SDS011;42245;42.058;24.700;2023-03-20T13:51:25;11.13;;;5.20;;
56343;SDS011;42245;42.058;24.700;2023-03-20T13:59:50;5.88;;;4.45;;
56343;SDS011;42245;42.058;24.700;2023-03-20T14:05:18;9.85;;;5.00;;
56343;SDS011;42245;42.058;24.700;2023-03-20T14:07:48;9.50;;;5.78;;
56343;SDS011;42245;42.058;24.700;2023-03-20T14:15:21;9.35;;;5.78;;
56343;SDS011;42245;42.058;24.700;2023-03-20T14:17:47;7.57;;;5.35;;
56343;SDS011;42245;42.058;24.700;2023-03-20T14:23:19;7.97;;;4.88;;
56343;SDS011;42245;42.058;24.700;2023-03-20T14:25:47;7.53;;;5.20;;
56343;SDS011;42245;42.058;24.700;2023-03-20T14:30:42;8.23;;;4.20;;
56343;SDS011;42245;42.058;24.700;2023-03-20T14:35:49;7.95;;;5.38;;
56343;SDS011;42245;42.058;24.700;2023-03-20T14:49:29;9.98;;;5.20;;
56343;SDS011;42245;42.058;24.700;2023-03-20T14:51:59;10.45;;;4.80;;
56343;SDS011;42245;42.058;24.700;2023-03-20T14:54:41;13.35;;;5.00;;
56343;SDS011;42245;42.058;24.700;2023-03-20T14:57:17;7.32;;;4.90;;
56343;SDS011;42245;42.058;24.700;2023-03-20T14:59:49;7.07;;;4.97;;
56343;SDS011;42245;42.058;24.700;2023-03-20T15:02:25;7.43;;;5.07;;
56343;SDS011;42245;42.058;24.700;2023-03-20T15:04:52;7.55;;;5.20;;
56343;SDS011;42245;42.058;24.700;2023-03-20T15:07:30;7.38;;;4.68;;
56343;SDS011;42245;42.058;24.700;2023-03-20T15:10:00;11.05;;;5.70;;
56343;SDS011;42245;42.058;24.700;2023-03-20T15:12:28;7.45;;;5.00;;
56343;SDS011;42245;42.058;24.700;2023-03-20T15:14:56;8.02;;;5.32;;
56343;SDS011;42245;42.058;24.700;2023-03-20T15:17:26;9.77;;;4.90;;
56343;SDS011;42245;42.058;24.700;2023-03-20T15:19:59;7.55;;;5.03;;
56343;SDS011;42245;42.058;24.700;2023-03-20T15:22:28;10.57;;;4.97;;
56343;SDS011;42245;42.058;24.700;2023-03-20T15:24:54;9.32;;;5.05;;
56343;SDS011;42245;42.058;24.700;2023-03-20T15:27:21;11.05;;;4.70;;
56343;SDS011;42245;42.058;24.700;2023-03-20T15:29:50;14.70;;;5.63;;
56343;SDS011;42245;42.058;24.700;2023-03-20T15:32:17;8.82;;;5.13;;
56343;SDS011;42245;42.058;24.700;2023-03-20T15:34:43;9.15;;;5.30;;
56343;SDS011;42245;42.058;24.700;2023-03-20T15:37:12;7.70;;;5.38;;
56343;SDS011;42245;42.058;24.700;2023-03-20T15:39:46;14.32;;;5.32;;
56343;SDS011;42245;42.058;24.700;2023-03-20T15:42:14;8.70;;;4.90;;
56343;SDS011;42245;42.058;24.700;2023-03-20T15:44:43;9.57;;;5.93;;
56343;SDS011;42245;42.058;24.700;2023-03-20T15:49:35;10.13;;;5.88;;
56343;SDS011;42245;42.058;24.700;2023-03-20T15:52:03;8.00;;;5.47;;
56343;SDS011;42245;42.058;24.700;2023-03-20T15:54:30;16.52;;;6.90;;
56343;SDS011;42245;42.058;24.700;2023-03-20T15:56:56;21.30;;;9.65;;
56343;SDS011;42245;42.058;24.700;2023-03-20T15:59:23;20.45;;;10.90;;
56343;SDS011;42245;42.058;24.700;2023-03-20T16:01:50;16.10;;;8.38;;
56343;SDS011;42245;42.058;24.700;2023-03-20T16:04:18;13.15;;;6.50;;
56343;SDS011;42245;42.058;24.700;2023-03-20T16:06:51;64.97;;;8.27;;
56343;SDS011;42245;42.058;24.700;2023-03-20T16:09:18;18.52;;;6.18;;
56343;SDS011;42245;42.058;24.700;2023-03-20T16:11:45;15.60;;;6.30;;
56343;SDS011;42245;42.058;24.700;2023-03-20T16:14:13;13.32;;;5.80;;
56343;SDS011;42245;42.058;24.700;2023-03-20T16:16:46;16.88;;;6.72;;
56343;SDS011;42245;42.058;24.700;2023-03-20T16:19:12;16.02;;;6.50;;
56343;SDS011;42245;42.058;24.700;2023-03-20T16:21:39;20.75;;;8.30;;
56343;SDS011;42245;42.058;24.700;2023-03-20T16:24:14;13.10;;;7.68;;
56343;SDS011;42245;42.058;24.700;2023-03-20T16:26:43;13.57;;;7.03;;
56343;SDS011;42245;42.058;24.700;2023-03-20T16:29:10;15.40;;;6.22;;
56343;SDS011;42245;42.058;24.700;2023-03-20T16:31:40;11.75;;;5.22;;
56343;SDS011;42245;42.058;24.700;2023-03-20T16:34:16;10.48;;;5.53;;
56343;SDS011;42245;42.058;24.700;2023-03-20T16:36:48;9.18;;;4.93;;
56343;SDS011;42245;42.058;24.700;2023-03-20T16:41:41;10.70;;;5.53;;
56343;SDS011;42245;42.058;24.700;2023-03-20T16:44:10;11.40;;;5.40;;
56343;SDS011;42245;42.058;24.700;2023-03-20T16:46:36;13.73;;;5.53;;
56343;SDS011;42245;42.058;24.700;2023-03-20T16:51:59;11.63;;;5.53;;
56343;SDS011;42245;42.058;24.700;2023-03-20T16:54:27;12.40;;;5.30;;
56343;SDS011;42245;42.058;24.700;2023-03-20T16:56:54;10.20;;;5.05;;
56343;SDS011;42245;42.058;24.700;2023-03-20T16:59:20;9.55;;;6.20;;
56343;SDS011;42245;42.058;24.700;2023-03-20T17:01:47;11.02;;;6.70;;
56343;SDS011;42245;42.058;24.700;2023-03-20T17:04:17;11.05;;;5.97;;
56343;SDS011;42245;42.058;24.700;2023-03-20T17:06:46;9.35;;;5.50;;
56343;SDS011;42245;42.058;24.700;2023-03-20T17:09:15;12.95;;;4.78;;
56343;SDS011;42245;42.058;24.700;2023-03-20T17:14:35;9.27;;;5.53;;
56343;SDS011;42245;42.058;24.700;2023-03-20T17:17:00;8.73;;;5.03;;
56343;SDS011;42245;42.058;24.700;2023-03-20T17:19:26;8.48;;;5.57;;
56343;SDS011;42245;42.058;24.700;2023-03-20T17:21:51;11.35;;;5.13;;
56343;SDS011;42245;42.058;24.700;2023-03-20T17:24:17;6.07;;;4.40;;
56343;SDS011;42245;42.058;24.700;2023-03-20T17:26:43;6.18;;;4.47;;
56343;SDS011;42245;42.058;24.700;2023-03-20T17:29:11;6.07;;;4.30;;
56343;SDS011;42245;42.058;24.700;2023-03-20T17:31:37;9.23;;;4.55;;
56343;SDS011;42245;42.058;24.700;2023-03-20T17:34:03;6.25;;;4.25;;
56343;SDS011;42245;42.058;24.700;2023-03-20T17:36:29;7.65;;;4.28;;
56343;SDS011;42245;42.058;24.700;2023-03-20T17:38:56;12.32;;;4.80;;
56343;SDS011;42245;42.058;24.700;2023-03-20T17:41:23;8.43;;;4.60;;
56343;SDS011;42245;42.058;24.700;2023-03-20T17:43:49;6.68;;;4.05;;
56343;SDS011;42245;42.058;24.700;2023-03-20T17:46:18;9.50;;;4.20;;
56343;SDS011;42245;42.058;24.700;2023-03-20T17:48:45;7.63;;;4.05;;
56343;SDS011;42245;42.058;24.700;2023-03-20T17:51:12;6.78;;;3.53;;
56343;SDS011;42245;42.058;24.700;2023-03-20T17:53:37;7.65;;;4.30;;
56343;SDS011;42245;42.058;24.700;2023-03-20T17:56:04;10.20;;;4.60;;
56343;SDS011;42245;42.058;24.700;2023-03-20T17:58:34;9.27;;;4.50;;
56343;SDS011;42245;42.058;24.700;2023-03-20T18:00:59;8.57;;;4.35;;
56343;SDS011;42245;42.058;24.700;2023-03-20T18:03:25;13.43;;;4.18;;
56343;SDS011;42245;42.058;24.700;2023-03-20T18:05:51;12.20;;;4.25;;
56343;SDS011;42245;42.058;24.700;2023-03-20T18:08:20;7.78;;;3.97;;
56343;SDS011;42245;42.058;24.700;2023-03-20T18:10:50;7.38;;;4.03;;
56343;SDS011;42245;42.058;24.700;2023-03-20T18:13:16;7.07;;;4.30;;
56343;SDS011;42245;42.058;24.700;2023-03-20T18:15:45;7.00;;;4.10;;
56343;SDS011;42245;42.058;24.700;2023-03-20T18:18:14;7.35;;;4.03;;
56343;SDS011;42245;42.058;24.700;2023-03-20T18:20:40;6.82;;;4.03;;
56343;SDS011;42245;42.058;24.700;2023-03-20T18:23:06;7.85;;;4.30;;
56343;SDS011;42245;42.058;24.700;2023-03-20T18:25:32;5.72;;;3.88;;
56343;SDS011;42245;42.058;24.700;2023-03-20T18:27:58;8.43;;;4.35;;
56343;SDS011;42245;42.058;24.700;2023-03-20T18:30:29;7.43;;;4.28;;
56343;SDS011;42245;42.058;24.700;2023-03-20T18:32:57;5.72;;;4.10;;
56343;SDS011;42245;42.058;24.700;2023-03-20T18:35:23;6.20;;;4.00;;
56343;SDS011;42245;42.058;24.700;2023-03-20T18:37:48;7.07;;;3.90;;
56343;SDS011;42245;42.058;24.700;2023-03-20T18:40:18;6.18;;;4.10;;
56343;SDS011;42245;42.058;24.700;2023-03-20T18:42:45;6.18;;;3.63;;
56343;SDS011;42245;42.058;24.700;2023-03-20T18:45:11;8.38;;;3.90;;
56343;SDS011;42245;42.058;24.700;2023-03-20T18:47:37;7.63;;;4.03;;
56343;SDS011;42245;42.058;24.700;2023-03-20T18:50:03;8.68;;;3.97;;
56343;SDS011;42245;42.058;24.700;2023-03-20T18:52:28;8.63;;;3.83;;
56343;SDS011;42245;42.058;24.700;2023-03-20T18:54:54;6.55;;;3.83;;
56343;SDS011;42245;42.058;24.700;2023-03-20T18:57:19;5.13;;;3.70;;
56343;SDS011;42245;42.058;24.700;2023-03-20T18:59:44;7.10;;;4.00;;
56343;SDS011;42245;42.058;24.700;2023-03-20T19:02:10;6.32;;;3.70;;
56343;SDS011;42245;42.058;24.700;2023-03-20T19:04:36;6.55;;;3.78;;
56343;SDS011;42245;42.058;24.700;2023-03-20T19:07:01;6.38;;;3.63;;
56343;SDS011;42245;42.058;24.700;2023-03-20T19:09:26;7.30;;;4.38;;
56343;SDS011;42245;42.058;24.700;2023-03-20T19:11:52;6.75;;;3.70;;
56343;SDS011;42245;42.058;24.700;2023-03-20T19:14:17;7.72;;;4.13;;
56343;SDS011;42245;42.058;24.700;2023-03-20T19:16:43;6.85;;;3.65;;
56343;SDS011;42245;42.058;24.700;2023-03-20T19:19:09;6.22;;;3.35;;
56343;SDS011;42245;42.058;24.700;2023-03-20T19:21:35;5.70;;;3.72;;
56343;SDS011;42245;42.058;24.700;2023-03-20T19:24:02;7.05;;;3.70;;
56343;SDS011;42245;42.058;24.700;2023-03-20T19:26:30;6.70;;;4.00;;
56343;SDS011;42245;42.058;24.700;2023-03-20T19:28:56;7.88;;;4.10;;
56343;SDS011;42245;42.058;24.700;2023-03-20T19:31:23;5.30;;;3.30;;
56343;SDS011;42245;42.058;24.700;2023-03-20T19:33:49;6.80;;;3.50;;
